Traun, Austria
Current Conditions -  °F | °C
As of 6:20 PM on Saturday 25 Oct 2014 (Local Time) from LOWL Reporting Station
Broken Clouds Broken Clouds  
Wind Chill: 43°   Ceiling: 1600
Heat Index: 43°   Visibility: 4mi
Dew Point: 41°   Wind: 3mph
Humidity: 93%   Direction: 220°SW
Pressure: 30.21"   Gusts: NA
Location:  48.23°N, 14.24°E
Report Text: LOWL 251620Z 22003KT 7000 SCT012 BKN016 06/05 Q1023 TEMPO BKN012
Loading
Personal Weather Stations






























Interactive Weather Map
Tropical Storm Tracking
New forecast layout! Learn more

10-Day Weather Forecast

Advertisements
Track Severe Weather on mobile